Time;durP1;ratioP1;P1;durP2;ratioP2;P2;SDS_P1;SDS_P2;PMS_P1;PMS_P2;Temp;Humidity;BMP_temperature;BMP_pressure;BME280_temperature;BME280_humidity;BME280_pressure;Samples;Min_cycle;Max_cycle;Signal;HPM_P1;HPM_P2
2021/04/07 00:00:43;;;;;;;1999.90;999.90;;;;;;;0.51;81.50;97132.06;5006266;28;20516;-64
2021/04/07 00:03:10;;;;;;;1999.90;999.90;;;;;;;0.57;81.96;97119.22;5007677;28;20042;-63
2021/04/07 00:05:41;;;;;;;1999.90;999.90;;;;;;;0.52;81.78;97129.06;5007535;28;20054;-63
2021/04/07 00:08:08;;;;;;;1999.90;999.90;;;;;;;0.59;81.71;97117.00;5003603;28;20104;-64
2021/04/07 00:10:39;;;;;;;1999.90;999.90;;;;;;;0.92;80.96;97119.84;5008735;28;20807;-63
2021/04/07 00:13:09;;;;;;;;;;;;;;;1.03;79.59;97133.03;5007743;28;20475;-63
2021/04/07 00:15:36;;;;;;;1999.90;999.90;;;;;;;0.64;80.54;97134.09;5008237;28;20358;-63
2021/04/07 00:18:03;;;;;;;1999.90;999.90;;;;;;;0.23;82.59;97131.00;5005503;28;20393;-63
2021/04/07 00:20:30;;;;;;;1999.90;999.90;;;;;;;0.25;82.45;97134.25;5006426;28;20042;-64
2021/04/07 00:22:57;;;;;;;1999.90;999.90;;;;;;;0.38;82.37;97127.31;5009437;28;20049;-64
2021/04/07 00:25:25;;;;;;;1999.90;999.90;;;;;;;0.26;82.43;97133.97;5013379;28;20046;-64
2021/04/07 00:27:56;;;;;;;1999.90;999.90;;;;;;;0.40;81.75;97136.78;5006242;28;20517;-64
2021/04/07 00:30:27;;;;;;;1999.90;999.90;;;;;;;0.33;81.45;97139.88;5007646;28;20053;-63
2021/04/07 00:32:54;;;;;;;1999.90;999.90;;;;;;;0.04;83.25;97141.81;5007692;28;20053;-64
2021/04/07 00:35:21;;;;;;;1999.90;999.90;;;;;;;0.25;82.42;97134.25;5005065;28;20046;-63
2021/04/07 00:37:48;;;;;;;1999.90;999.90;;;;;;;0.26;82.04;97142.13;5009498;28;20328;-63
2021/04/07 00:40:15;;;;;;;1999.90;999.90;;;;;;;0.34;81.96;97146.94;5007327;28;20104;-64
2021/04/07 00:42:43;;;;;;;1999.90;999.90;;;;;;;0.33;81.92;97152.66;5013848;28;20068;-64
2021/04/07 00:45:11;;;;;;;1999.90;999.90;;;;;;;0.17;82.18;97143.84;5005843;28;20475;-64
2021/04/07 00:47:38;;;;;;;1999.90;999.90;;;;;;;0.38;81.78;97139.00;5011972;28;20100;-64
2021/04/07 00:50:05;;;;;;;1999.90;999.90;;;;;;;0.57;80.46;97136.34;5007143;28;20049;-64
2021/04/07 00:52:32;;;;;;;1999.90;999.90;;;;;;;0.31;81.94;97136.63;5010761;28;20497;-64
2021/04/07 00:55:00;;;;;;;1999.90;999.90;;;;;;;0.40;81.58;97136.00;5009366;28;20077;-64
2021/04/07 00:57:26;;;;;;;1999.90;999.90;;;;;;;0.38;81.43;97138.19;5000028;28;20049;-64
2021/04/07 00:59:53;;;;;;;1999.90;999.90;;;;;;;0.39;81.01;97129.75;4998208;28;20141;-64
2021/04/07 01:02:19;;;;;;;1999.90;999.90;;;;;;;0.60;80.38;97130.31;5006232;28;20445;-64
2021/04/07 01:04:47;;;;;;;1999.90;999.90;;;;;;;0.79;79.34;97143.13;5007555;28;20053;-64
2021/04/07 01:07:14;;;;;;;1999.90;999.90;;;;;;;0.55;79.51;97143.16;5005977;28;20104;-64
2021/04/07 01:09:41;;;;;;;1999.90;999.90;;;;;;;0.52;80.39;97148.09;5012099;28;20103;-64
2021/04/07 01:12:07;;;;;;;1999.90;999.90;;;;;;;0.21;81.32;97142.19;5004617;28;20119;-64
2021/04/07 01:14:35;;;;;;;1999.90;999.90;;;;;;;0.13;82.33;97142.78;5005031;28;20091;-64
2021/04/07 01:17:02;;;;;;;1999.90;999.90;;;;;;;0.31;81.45;97150.22;5008075;28;20112;-64
2021/04/07 01:19:29;;;;;;;1999.90;999.90;;;;;;;0.66;80.34;97148.19;5010476;28;20559;-64
2021/04/07 01:21:55;;;;;;;1999.90;999.90;;;;;;;0.40;80.83;97146.88;5006569;28;20046;-64
2021/04/07 01:24:23;;;;;;;1999.90;999.90;;;;;;;0.31;80.78;97152.94;5005420;28;20085;-64
2021/04/07 01:26:50;;;;;;;1999.90;999.90;;;;;;;0.06;81.76;97147.75;5003659;28;20056;-64
2021/04/07 01:29:16;;;;;;;1999.90;999.90;;;;;;;0.44;81.09;97148.72;5003713;28;20045;-64
2021/04/07 01:32:01;;;;;;;1999.90;999.90;;;;;;;0.52;79.87;97147.25;5005082;28;20481;-64
2021/04/07 01:34:29;;;;;;;1999.90;999.90;;;;;;;0.44;80.94;97159.59;5003863;28;20050;-64
2021/04/07 01:36:58;;;;;;;1999.90;999.90;;;;;;;0.52;79.81;97152.72;5005825;28;20452;-65
2021/04/07 01:39:26;;;;;;;1999.90;999.90;;;;;;;0.64;79.93;97153.13;5006609;28;20042;-64
2021/04/07 01:41:52;;;;;;;1999.90;999.90;;;;;;;0.55;79.84;97152.13;5007081;28;20065;-63
2021/04/07 01:44:20;;;;;;;1999.90;999.90;;;;;;;0.77;79.15;97154.31;5008215;28;20119;-63
2021/04/07 01:46:46;;;;;;;1999.90;999.90;;;;;;;0.90;78.84;97150.09;5005352;28;20050;-64
2021/04/07 01:49:14;;;;;;;1999.90;999.90;;;;;;;1.08;77.42;97153.13;5010923;28;20056;-64
2021/04/07 01:51:41;;;;;;;1999.90;999.90;;;;;;;1.08;76.88;97151.22;5004445;28;20108;-63
2021/04/07 01:54:12;;;;;;;1999.90;999.90;;;;;;;1.30;76.26;97158.81;5009939;28;20054;-64
2021/04/07 01:56:50;;;;;;;1999.90;999.90;;;;;;;1.22;75.39;97159.44;5003787;28;20497;-63
2021/04/07 01:59:19;;;;;;;1999.90;999.90;;;;;;;0.98;76.42;97165.78;5006582;28;20053;-64
2021/04/07 02:01:45;;;;;;;1999.90;999.90;;;;;;;0.77;76.89;97156.25;5005770;28;20096;-64
2021/04/07 02:04:14;;;;;;;1999.90;999.90;;;;;;;0.76;76.56;97165.50;5005741;28;20057;-64
2021/04/07 02:06:41;;;;;;;1999.90;999.90;;;;;;;1.07;74.90;97167.84;5007153;28;20068;-64
2021/04/07 02:09:07;;;;;;;1999.90;999.90;;;;;;;1.14;74.74;97166.38;5005886;28;20476;-63
2021/04/07 02:11:34;;;;;;;1999.90;999.90;;;;;;;1.18;75.26;97172.06;5006201;28;20060;-64
2021/04/07 02:14:00;;;;;;;1999.90;999.90;;;;;;;1.08;75.17;97166.75;5002447;28;20104;-64
2021/04/07 02:16:26;;;;;;;1999.90;999.90;;;;;;;0.96;75.37;97173.41;5006569;28;20042;-64
2021/04/07 02:18:52;;;;;;;1999.90;999.90;;;;;;;0.70;76.30;97172.94;5004653;28;20050;-64
2021/04/07 02:21:22;;;;;;;1999.90;999.90;;;;;;;0.97;75.90;97175.03;5008856;28;20060;-64
2021/04/07 02:23:48;;;;;;;1999.90;999.90;;;;;;;0.82;76.06;97177.94;5005957;28;20069;-63
2021/04/07 02:26:14;;;;;;;1999.90;999.90;;;;;;;0.73;76.28;97179.69;5006686;28;20054;-64
2021/04/07 02:28:40;;;;;;;1999.90;999.90;;;;;;;0.89;76.10;97175.69;5002705;28;20553;-65
2021/04/07 02:31:07;;;;;;;1999.90;999.90;;;;;;;0.94;75.70;97181.06;5003061;28;20050;-64
2021/04/07 02:33:33;;;;;;;1999.90;999.90;;;;;;;0.69;76.69;97183.00;5004899;28;20103;-64
2021/04/07 02:35:59;;;;;;;1999.90;999.90;;;;;;;0.63;76.88;97186.06;5006293;28;20050;-64
2021/04/07 02:38:25;;;;;;;1999.90;999.90;;;;;;;0.48;77.92;97185.13;5011042;28;20041;-65
2021/04/07 02:40:52;;;;;;;1999.90;999.90;;;;;;;0.70;77.03;97187.34;5007363;28;20050;-65
2021/04/07 02:43:18;;;;;;;1999.90;999.90;;;;;;;1.03;76.07;97189.41;5007657;28;20061;-65
2021/04/07 02:45:44;;;;;;;1999.90;999.90;;;;;;;0.81;75.81;97179.06;5004939;28;20448;-65
2021/04/07 02:48:10;;;;;;;1999.90;999.90;;;;;;;0.64;77.14;97182.22;5004549;28;20061;-65
2021/04/07 02:50:36;;;;;;;1999.90;999.90;;;;;;;0.75;77.01;97186.47;5003635;28;20108;-65
2021/04/07 02:53:02;;;;;;;1999.90;999.90;;;;;;;0.79;76.41;97182.06;5006180;28;20140;-64
2021/04/07 02:55:28;;;;;;;1999.90;999.90;;;;;;;0.57;76.94;97185.31;5004117;28;20045;-64
2021/04/07 02:57:55;;;;;;;1999.90;999.90;;;;;;;0.55;77.58;97190.22;5004729;28;20042;-65
2021/04/07 03:00:22;;;;;;;1999.90;999.90;;;;;;;0.81;76.01;97187.22;5005992;28;20058;-64
2021/04/07 03:02:48;;;;;;;1999.90;999.90;;;;;;;0.66;76.56;97183.56;5003410;28;20386;-63
2021/04/07 03:05:14;;;;;;;1999.90;999.90;;;;;;;0.59;77.17;97185.81;5005529;28;20057;-64
2021/04/07 03:07:40;;;;;;;1999.90;999.90;;;;;;;0.37;77.86;97196.41;5003889;28;20046;-64
2021/04/07 03:10:09;;;;;;;1999.90;999.90;;;;;;;0.34;78.70;97192.34;5004001;28;20061;-63
2021/04/07 03:12:35;;;;;;;1999.90;999.90;;;;;;;-0.05;79.94;97204.13;5001968;28;20505;-64
2021/04/07 03:15:02;;;;;;;1999.90;999.90;;;;;;;-0.10;80.99;97209.59;5004406;28;20071;-63
2021/04/07 03:17:28;;;;;;;1999.90;999.90;;;;;;;0.05;80.78;97197.81;5002316;28;20061;-64
2021/04/07 03:19:54;;;;;;;1999.90;999.90;;;;;;;0.17;80.01;97209.09;5005100;28;20054;-64
2021/04/07 03:22:20;;;;;;;1999.90;999.90;;;;;;;0.10;79.63;97203.19;5008445;28;20099;-63
2021/04/07 03:24:47;;;;;;;1999.90;999.90;;;;;;;0.08;80.48;97218.97;5006152;28;20046;-64
2021/04/07 03:27:13;;;;;;;1999.90;999.90;;;;;;;-0.06;80.87;97216.06;5008563;28;20041;-64
2021/04/07 03:29:39;;;;;;;1999.90;999.90;;;;;;;0.24;79.59;97208.75;5005360;28;20045;-63
2021/04/07 03:32:06;;;;;;;1999.90;999.90;;;;;;;0.56;79.48;97210.09;5009306;28;20062;-64
2021/04/07 03:34:32;;;;;;;1999.90;999.90;;;;;;;0.68;77.84;97213.22;5009497;28;21227;-63
2021/04/07 03:36:58;;;;;;;1999.90;999.90;;;;;;;0.68;78.00;97203.13;5007534;28;20049;-65
2021/04/07 03:39:25;;;;;;;1999.90;999.90;;;;;;;0.80;77.69;97216.31;5008363;28;20508;-64
2021/04/07 03:41:51;;;;;;;1999.90;999.90;;;;;;;0.56;78.45;97213.59;5008932;28;20045;-64
2021/04/07 03:44:17;;;;;;;1999.90;999.90;;;;;;;0.79;77.92;97219.34;5006070;28;20050;-64
2021/04/07 03:46:43;;;;;;;1999.90;999.90;;;;;;;0.80;77.75;97227.22;5011034;28;20061;-64
2021/04/07 03:49:09;;;;;;;1999.90;999.90;;;;;;;0.96;77.59;97227.84;5004291;28;20074;-64
2021/04/07 03:51:35;;;;;;;1999.90;999.90;;;;;;;1.14;76.56;97233.66;5011057;28;20107;-64
2021/04/07 03:54:01;;;;;;;1999.90;999.90;;;;;;;0.97;76.37;97236.81;5010117;28;20124;-64
2021/04/07 03:56:28;;;;;;;1999.90;999.90;;;;;;;1.17;77.01;97242.03;5007460;28;20053;-63
2021/04/07 03:58:54;;;;;;;1999.90;999.90;;;;;;;1.26;76.64;97238.66;5008182;28;20076;-63
2021/04/07 04:01:20;;;;;;;1999.90;999.90;;;;;;;1.39;75.88;97246.13;5009926;28;20057;-63
2021/04/07 04:03:46;;;;;;;1999.90;999.90;;;;;;;1.17;76.26;97247.47;5007954;28;20053;-64
2021/04/07 04:06:14;;;;;;;1999.90;999.90;;;;;;;1.26;76.07;97255.81;5004871;28;20507;-64
2021/04/07 04:08:40;;;;;;;1999.90;999.90;;;;;;;1.23;76.10;97256.41;5000459;28;20445;-64
2021/04/07 04:11:06;;;;;;;1999.90;999.90;;;;;;;1.14;76.47;97258.94;5001055;28;20054;-64
2021/04/07 04:13:32;;;;;;;1999.90;999.90;;;;;;;1.18;76.35;97264.66;5003602;28;20092;-63
2021/04/07 04:15:58;;;;;;;1999.90;999.90;;;;;;;0.91;77.49;97260.59;5002818;28;20053;-64
2021/04/07 04:18:25;;;;;;;1999.90;999.90;;;;;;;1.22;77.13;97265.66;5006797;28;20449;-64
2021/04/07 04:20:51;;;;;;;1999.90;999.90;;;;;;;1.12;77.32;97276.72;5000700;28;20058;-64
2021/04/07 04:23:17;;;;;;;1999.90;999.90;;;;;;;0.90;76.89;97264.41;5006848;28;20061;-64
2021/04/07 04:25:43;;;;;;;1999.90;999.90;;;;;;;1.07;77.27;97274.81;5003566;28;20057;-64
2021/04/07 04:28:09;;;;;;;1999.90;999.90;;;;;;;1.15;76.95;97271.47;5004398;28;20420;-64
2021/04/07 04:30:35;;;;;;;1999.90;999.90;;;;;;;1.20;77.08;97273.31;5001604;28;20456;-64
2021/04/07 04:33:01;;;;;;;1999.90;999.90;;;;;;;1.11;76.36;97280.53;5005905;28;20513;-64
2021/04/07 04:35:27;;;;;;;1999.90;999.90;;;;;;;1.07;77.24;97276.75;5001552;28;20053;-64
2021/04/07 04:37:54;;;;;;;1999.90;999.90;;;;;;;0.87;77.83;97287.56;5005192;28;20042;-64
2021/04/07 04:40:20;;;;;;;1999.90;999.90;;;;;;;1.14;77.01;97283.47;5002006;28;20057;-64
2021/04/07 04:42:47;;;;;;;1999.90;999.90;;;;;;;1.12;77.01;97282.16;5002392;28;20046;-64
2021/04/07 04:45:14;;;;;;;1999.90;999.90;;;;;;;1.54;76.46;97277.81;5001848;28;20112;-64
2021/04/07 04:47:41;;;;;;;1999.90;999.90;;;;;;;1.59;75.74;97277.72;4998778;28;20425;-64
2021/04/07 04:50:10;;;;;;;1999.90;999.90;;;;;;;1.14;76.42;97288.09;5003670;28;20060;-64
2021/04/07 04:52:37;;;;;;;1999.90;999.90;;;;;;;1.11;77.69;97291.41;5001108;28;20050;-64
2021/04/07 04:55:08;;;;;;;1999.90;999.90;;;;;;;1.61;76.01;97294.59;5011658;28;20054;-64
2021/04/07 04:57:34;;;;;;;1999.90;999.90;;;;;;;1.33;76.07;97291.69;5001503;28;20054;-64
2021/04/07 05:00:01;;;;;;;1999.90;999.90;;;;;;;1.20;77.05;97300.56;5001149;28;20497;-64
2021/04/07 05:02:27;;;;;;;1999.90;999.90;;;;;;;1.52;76.07;97299.06;5001125;28;20418;-64
2021/04/07 05:04:53;;;;;;;1999.90;999.90;;;;;;;1.31;76.65;97296.63;5000096;28;20145;-64
2021/04/07 05:07:19;;;;;;;1999.90;999.90;;;;;;;1.22;77.69;97301.06;5005588;28;20050;-64
2021/04/07 05:09:45;;;;;;;1999.90;999.90;;;;;;;1.21;77.40;97297.53;5031436;28;20389;-64
2021/04/07 05:12:12;;;;;;;1999.90;999.90;;;;;;;1.20;77.02;97304.06;5005593;28;20398;-64
2021/04/07 05:14:38;;;;;;;1999.90;999.90;;;;;;;1.33;77.35;97305.31;5000382;28;20049;-64
2021/04/07 05:17:04;;;;;;;1999.90;999.90;;;;;;;1.14;78.17;97304.44;5003262;28;20161;-64
2021/04/07 05:19:30;;;;;;;1999.90;999.90;;;;;;;1.30;78.44;97314.06;5001058;28;20172;-64
2021/04/07 05:21:56;;;;;;;1999.90;999.90;;;;;;;1.36;77.19;97314.81;5000522;28;20053;-64
2021/04/07 05:24:22;;;;;;;1999.90;999.90;;;;;;;1.34;77.89;97323.28;5010993;28;20170;-64
2021/04/07 05:26:49;;;;;;;1999.90;999.90;;;;;;;1.55;77.47;97321.09;5001606;28;20050;-64
2021/04/07 05:29:15;;;;;;;1999.90;999.90;;;;;;;1.57;76.66;97329.00;5006158;28;20084;-64
2021/04/07 05:31:41;;;;;;;1999.90;999.90;;;;;;;1.50;77.01;97328.53;5001722;28;20664;-65
2021/04/07 05:34:07;;;;;;;1999.90;999.90;;;;;;;1.23;78.18;97327.22;5002066;28;20058;-64
2021/04/07 05:36:33;;;;;;;1999.90;999.90;;;;;;;1.57;77.08;97339.88;5004841;28;20053;-64
2021/04/07 05:38:59;;;;;;;1999.90;999.90;;;;;;;1.94;75.92;97338.31;5004390;28;20054;-64
2021/04/07 05:41:26;;;;;;;1999.90;999.90;;;;;;;1.99;75.09;97338.22;5000060;28;20057;-64
2021/04/07 05:43:52;;;;;;;1999.90;999.90;;;;;;;1.74;75.83;97347.56;5001861;28;20057;-64
2021/04/07 05:46:18;;;;;;;1999.90;999.90;;;;;;;1.81;75.50;97348.03;5005482;28;20099;-64
2021/04/07 05:48:45;;;;;;;1999.90;999.90;;;;;;;2.29;74.86;97349.81;5001298;28;20052;-64
2021/04/07 05:51:11;;;;;;;1999.90;999.90;;;;;;;2.37;73.93;97343.69;5002412;28;20046;-65
2021/04/07 05:53:38;;;;;;;1999.90;999.90;;;;;;;2.07;74.19;97350.41;5002469;28;20144;-64
2021/04/07 05:56:23;;;;;;;1999.90;999.90;;;;;;;2.61;73.40;97348.22;4999235;28;20073;-64
2021/04/07 05:58:49;;;;;;;1999.90;999.90;;;;;;;2.72;72.88;97354.31;4999825;28;20100;-65
2021/04/07 06:01:15;;;;;;;1999.90;999.90;;;;;;;2.62;72.68;97352.56;5000872;28;20104;-66
2021/04/07 06:03:41;;;;;;;1999.90;999.90;;;;;;;2.73;71.83;97355.97;5000001;28;20052;-65
2021/04/07 06:06:10;;;;;;;1999.90;999.90;;;;;;;2.64;72.40;97353.91;4999343;28;20069;-65
2021/04/07 06:08:37;;;;;;;1999.90;999.90;;;;;;;2.22;73.77;97357.53;5001508;28;20592;-65
2021/04/07 06:11:03;;;;;;;1999.90;999.90;;;;;;;2.58;72.87;97359.75;4998527;28;20083;-65
2021/04/07 06:13:30;;;;;;;1999.90;999.90;;;;;;;2.89;72.10;97353.75;4998102;28;20084;-63
2021/04/07 06:15:56;;;;;;;1999.90;999.90;;;;;;;2.49;72.65;97356.06;5002054;28;20107;-64
2021/04/07 06:18:22;;;;;;;1999.90;999.90;;;;;;;2.72;72.31;97360.59;5007498;28;20049;-64
2021/04/07 06:20:50;;;;;;;1999.90;999.90;;;;;;;3.13;71.49;97359.88;5003995;28;20054;-64
2021/04/07 06:23:18;;;;;;;1999.90;999.90;;;;;;;3.10;70.96;97368.69;5000745;28;20064;-63
2021/04/07 06:25:45;;;;;;;1999.90;999.90;;;;;;;3.35;70.12;97361.94;4995339;28;20497;-64
2021/04/07 06:28:13;;;;;;;1999.90;999.90;;;;;;;3.42;69.19;97358.78;4998771;28;22850;-64
2021/04/07 06:30:46;;;;;;;1999.90;999.90;;;;;;;3.46;68.58;97361.75;4982136;28;21625;-64
2021/04/07 06:33:19;;;;;;;1999.90;999.90;;;;;;;3.94;67.66;97365.97;4995191;28;20049;-64
2021/04/07 06:35:49;;;;;;;1999.90;999.90;;;;;;;3.67;67.33;97367.63;4994545;28;20136;-64
2021/04/07 06:38:17;;;;;;;1999.90;999.90;;;;;;;3.76;67.62;97365.78;4993631;28;20571;-64
2021/04/07 06:40:43;;;;;;;1999.90;999.90;;;;;;;3.82;67.32;97364.56;5002759;28;20452;-65
2021/04/07 06:43:11;;;;;;;1999.90;999.90;;;;;;;3.10;68.16;97362.41;4998348;28;20143;-65
2021/04/07 06:45:38;;;;;;;1999.90;999.90;;;;;;;3.43;68.48;97362.34;4998023;28;20061;-64
2021/04/07 06:48:09;;;;;;;1999.90;999.90;;;;;;;3.26;69.37;97362.94;4998086;28;20425;-65
2021/04/07 06:50:37;;;;;;;1999.90;999.90;;;;;;;3.63;70.52;97366.59;4995892;28;20046;-64
2021/04/07 06:53:05;;;;;;;1999.90;999.90;;;;;;;3.96;69.34;97369.19;4997328;28;20053;-64
2021/04/07 06:55:32;;;;;;;1999.90;999.90;;;;;;;3.43;69.00;97368.63;5007700;28;20802;-64
2021/04/07 06:58:01;;;;;;;1999.90;999.90;;;;;;;3.64;68.10;97371.75;5003827;28;20061;-64
2021/04/07 07:00:28;;;;;;;1999.90;999.90;;;;;;;2.98;66.48;97369.16;5006384;28;20054;-64
2021/04/07 07:03:04;;;;;;;1999.90;999.90;;;;;;;3.02;65.67;97379.50;5000801;28;20050;-64
2021/04/07 07:05:32;;;;;;;1999.90;999.90;;;;;;;3.11;66.65;97374.94;5002978;28;20140;-65
2021/04/07 07:08:05;;;;;;;1999.90;999.90;;;;;;;3.03;64.96;97381.91;5003544;28;20042;-65
2021/04/07 07:10:41;;;;;;;1999.90;999.90;;;;;;;2.76;64.83;97374.47;5006032;28;20073;-64
2021/04/07 07:13:09;;;;;;;1999.90;999.90;;;;;;;3.34;65.43;97376.72;5007006;28;20058;-64
2021/04/07 07:15:36;;;;;;;1999.90;999.90;;;;;;;2.92;63.69;97375.03;5004458;28;20706;-64
2021/04/07 07:18:04;;;;;;;1999.90;999.90;;;;;;;3.37;63.90;97375.31;5007407;28;20555;-65
2021/04/07 07:20:36;;;;;;;1999.90;999.90;;;;;;;3.47;65.27;97364.19;5003435;28;20124;-64
2021/04/07 07:23:02;;;;;;;;;;;;;;;3.23;64.42;97380.75;5001835;28;20421;-64
2021/04/07 07:25:30;;;;;;;1999.90;999.90;;;;;;;3.57;63.84;97384.22;4999616;28;20340;-65
2021/04/07 07:28:06;;;;;;;1999.90;999.90;;;;;;;3.77;63.77;97394.75;5002906;28;20444;-65
2021/04/07 07:30:42;;;;;;;1999.90;999.90;;;;;;;4.15;62.64;97388.22;5002868;28;20046;-65
2021/04/07 07:33:40;;;;;;;1999.90;999.90;;;;;;;4.20;62.65;97390.88;5003111;28;20841;-65
2021/04/07 07:36:11;;;;;;;1999.90;999.90;;;;;;;4.96;60.45;97397.56;5011448;28;20488;-65
2021/04/07 07:38:48;;;;;;;1999.90;999.90;;;;;;;5.21;60.16;97394.19;5006478;28;20049;-65
2021/04/07 07:41:17;;;;;;;1999.90;999.90;;;;;;;5.10;59.14;97406.53;5002876;28;20501;-65
2021/04/07 07:43:43;;;;;;;1999.90;999.90;;;;;;;6.16;58.57;97390.25;4998101;28;20489;-65
2021/04/07 07:46:15;;;;;;;1999.90;999.90;;;;;;;5.60;58.52;97408.28;4999222;28;20054;-65
2021/04/07 07:48:41;;;;;;;;;;;;;;;4.36;61.08;97408.56;5007464;28;20054;-64
2021/04/07 07:51:26;;;;;;;1999.90;999.90;;;;;;;3.95;59.11;97414.91;5003208;28;19948;-64
2021/04/07 07:53:54;;;;;;;1999.90;999.90;;;;;;;4.37;59.98;97423.84;5000450;28;20077;-65
2021/04/07 07:56:22;;;;;;;1999.90;999.90;;;;;;;3.70;55.72;97422.47;5004136;28;20053;-65
2021/04/07 07:58:51;;;;;;;1999.90;999.90;;;;;;;3.64;57.41;97431.09;5003936;28;20526;-64
2021/04/07 08:01:41;;;;;;;1999.90;999.90;;;;;;;4.39;56.46;97429.00;5005633;28;20064;-65
2021/04/07 08:04:08;;;;;;;1999.90;999.90;;;;;;;3.29;57.11;97433.38;5005836;28;20509;-65
2021/04/07 08:06:34;;;;;;;1999.90;999.90;;;;;;;3.44;57.73;97435.84;5005110;28;20531;-65
2021/04/07 08:09:00;;;;;;;1999.90;999.90;;;;;;;3.26;57.65;97442.16;5002589;28;20046;-64
2021/04/07 08:11:26;;;;;;;1999.90;999.90;;;;;;;3.25;55.57;97443.31;5007716;28;20105;-65
2021/04/07 08:13:53;;;;;;;1999.90;999.90;;;;;;;3.83;55.08;97431.00;5000693;28;20331;-64
2021/04/07 08:16:21;;;;;;;1999.90;999.90;;;;;;;3.67;56.50;97439.50;5001649;28;20056;-65
2021/04/07 08:18:49;;;;;;;1999.90;999.90;;;;;;;4.35;55.04;97444.44;5004666;28;20085;-65
2021/04/07 08:21:21;;;;;;;1999.90;999.90;;;;;;;4.46;54.48;97437.63;5002102;28;20053;-65
2021/04/07 08:23:54;;;;;;;1999.90;999.90;;;;;;;4.59;54.94;97431.28;5000012;28;20547;-65
2021/04/07 08:26:24;;;;;;;1999.90;999.90;;;;;;;3.77;56.69;97433.03;5001124;28;20049;-66
2021/04/07 08:28:51;;;;;;;1999.90;999.90;;;;;;;3.40;60.09;97451.22;5000387;28;20046;-66
2021/04/07 08:31:18;;;;;;;1999.90;999.90;;;;;;;3.80;58.74;97443.38;5004115;28;20096;-66
2021/04/07 08:33:50;;;;;;;1999.90;999.90;;;;;;;4.35;56.47;97448.00;5002420;28;20111;-66
2021/04/07 08:36:18;;;;;;;1999.90;999.90;;;;;;;3.41;58.02;97455.59;5000473;28;20556;-65
2021/04/07 08:38:44;;;;;;;1999.90;999.90;;;;;;;3.40;56.37;97451.22;5003282;28;20077;-64
2021/04/07 08:41:19;;;;;;;1999.90;999.90;;;;;;;3.41;57.47;97457.47;5004816;28;20057;-64
2021/04/07 08:43:45;;;;;;;1999.90;999.90;;;;;;;4.13;55.70;97454.19;5004296;28;20053;-64
2021/04/07 08:46:16;;;;;;;1999.90;999.90;;;;;;;5.29;52.88;97445.50;5006458;28;20493;-65
2021/04/07 08:48:43;;;;;;;1999.90;999.90;;;;;;;5.57;51.15;97444.56;5001283;28;20061;-65
2021/04/07 08:51:12;;;;;;;1999.90;999.90;;;;;;;5.73;51.95;97444.94;5005872;28;20045;-64
2021/04/07 08:53:41;;;;;;;1999.90;999.90;;;;;;;5.79;50.53;97433.53;5001348;28;20054;-64
2021/04/07 08:56:12;;;;;;;1999.90;999.90;;;;;;;6.35;50.72;97436.59;4997568;28;20404;-64
2021/04/07 08:58:51;;;;;;;1999.90;999.90;;;;;;;6.02;51.41;97438.16;5001125;28;20065;-64
2021/04/07 09:01:31;;;;;;;1999.90;999.90;;;;;;;5.56;50.37;97441.00;5005311;28;20050;-64
2021/04/07 09:04:09;;;;;;;1999.90;999.90;;;;;;;4.58;54.98;97462.56;5009572;28;20581;-64
2021/04/07 09:06:37;;;;;;;1999.90;999.90;;;;;;;4.06;54.94;97462.00;5002908;28;20046;-64
2021/04/07 09:09:05;;;;;;;1999.90;999.90;;;;;;;4.01;55.63;97460.19;5003752;28;20151;-65
2021/04/07 09:11:34;;;;;;;1999.90;999.90;;;;;;;4.01;55.69;97462.91;5002108;28;20549;-65
2021/04/07 09:14:04;;;;;;;1999.90;999.90;;;;;;;4.26;53.22;97459.94;5003026;28;20049;-65
2021/04/07 09:16:36;;;;;;;1999.90;999.90;;;;;;;4.58;51.87;97459.81;5005691;28;20053;-64
2021/04/07 09:19:14;;;;;;;1999.90;999.90;;;;;;;5.25;50.83;97452.72;5002000;28;20141;-65
2021/04/07 09:22:08;;;;;;;1999.90;999.90;;;;;;;5.86;49.66;97449.50;5000596;28;20053;-65
2021/04/07 09:24:38;;;;;;;1999.90;999.90;;;;;;;6.19;49.89;97443.69;5002107;28;20049;-65
2021/04/07 09:27:05;;;;;;;1999.90;999.90;;;;;;;5.33;51.29;97459.41;4997839;28;20135;-65
2021/04/07 09:29:36;;;;;;;1999.90;999.90;;;;;;;5.02;50.97;97464.84;5003586;28;20119;-65
2021/04/07 09:32:03;;;;;;;1999.90;999.90;;;;;;;5.19;51.64;97462.22;5001027;28;20054;-65
2021/04/07 09:34:32;;;;;;;1999.90;999.90;;;;;;;4.42;52.72;97463.97;5002136;28;20130;-65
2021/04/07 09:36:58;;;;;;;1999.90;999.90;;;;;;;4.95;53.86;97470.75;4997706;28;20055;-65
2021/04/07 09:39:28;;;;;;;1999.90;999.90;;;;;;;4.83;53.42;97479.50;4996992;28;20124;-65
2021/04/07 09:41:56;;;;;;;1999.90;999.90;;;;;;;5.32;53.93;97470.69;4998090;28;20054;-65
2021/04/07 09:44:22;;;;;;;1999.90;999.90;;;;;;;4.20;52.74;97487.44;5002258;28;20045;-65
2021/04/07 09:46:51;;;;;;;1999.90;999.90;;;;;;;3.76;54.01;97479.84;5003192;28;20412;-65
2021/04/07 09:49:17;;;;;;;1999.90;999.90;;;;;;;4.15;56.32;97490.25;5002115;28;20650;-65
2021/04/07 09:51:49;;;;;;;1999.90;999.90;;;;;;;3.83;64.24;97475.56;5001595;28;20072;-65
2021/04/07 09:54:15;;;;;;;;;;;;;;;4.33;64.57;97490.47;5000369;28;20077;-66
2021/04/07 09:57:06;;;;;;;1999.90;999.90;;;;;;;3.89;68.05;97487.25;5004708;28;19929;-65
2021/04/07 09:59:36;;;;;;;1999.90;999.90;;;;;;;3.92;67.30;97500.31;4996506;28;20046;-66
2021/04/07 10:02:05;;;;;;;1999.90;999.90;;;;;;;4.11;67.01;97502.94;5003781;28;20385;-65
2021/04/07 10:04:34;;;;;;;1999.90;999.90;;;;;;;3.70;70.44;97509.19;5000923;28;20376;-64
2021/04/07 10:07:27;;;;;;;1999.90;999.90;;;;;;;3.65;69.53;97514.75;5003118;28;20065;-65
2021/04/07 10:09:57;;;;;;;1999.90;999.90;;;;;;;4.01;67.76;97508.63;5000506;28;20054;-66
2021/04/07 10:12:26;;;;;;;1999.90;999.90;;;;;;;4.81;65.53;97511.91;5000055;28;20061;-65
2021/04/07 10:14:54;;;;;;;1999.90;999.90;;;;;;;5.04;62.03;97509.19;5004542;28;20045;-66
2021/04/07 10:17:24;;;;;;;1999.90;999.90;;;;;;;5.46;59.75;97501.56;4998721;28;20092;-65
2021/04/07 10:19:50;;;;;;;1999.90;999.90;;;;;;;4.75;58.06;97504.91;4997893;28;20046;-66
2021/04/07 10:22:30;;;;;;;1999.90;999.90;;;;;;;5.88;56.88;97510.38;4998799;28;20058;-65
2021/04/07 10:25:02;;;;;;;1999.90;999.90;;;;;;;5.31;56.55;97516.47;5006186;28;20046;-64
2021/04/07 10:27:28;;;;;;;1999.90;999.90;;;;;;;4.84;60.66;97530.44;5000894;28;20049;-65
2021/04/07 10:30:10;;;;;;;1999.90;999.90;;;;;;;3.03;68.51;97540.34;5003465;28;20397;-65
2021/04/07 10:32:46;;;;;;;1999.90;999.90;;;;;;;2.03;75.55;97548.47;5008144;28;20485;-64
2021/04/07 10:35:24;;;;;;;1999.90;999.90;;;;;;;1.71;77.65;97558.88;5004400;28;20104;-64
2021/04/07 10:37:52;;;;;;;1999.90;999.90;;;;;;;2.53;77.23;97557.16;4998299;28;20128;-64
2021/04/07 10:40:23;;;;;;;1999.90;999.90;;;;;;;2.37;76.38;97550.25;5004920;28;20062;-65
2021/04/07 10:42:50;;;;;;;1999.90;999.90;;;;;;;2.83;74.72;97546.94;5008439;28;20050;-65
2021/04/07 10:45:18;;;;;;;1999.90;999.90;;;;;;;3.21;72.89;97532.44;5007831;28;20049;-65
2021/04/07 10:47:45;;;;;;;1999.90;999.90;;;;;;;3.31;69.49;97541.28;5005785;28;20060;-65
2021/04/07 10:50:12;;;;;;;1999.90;999.90;;;;;;;3.34;69.61;97546.13;5003917;28;20053;-64
2021/04/07 10:52:41;;;;;;;1999.90;999.90;;;;;;;4.12;68.97;97526.44;4999785;28;20061;-65
2021/04/07 10:55:14;;;;;;;1999.90;999.90;;;;;;;4.63;65.99;97532.00;5006909;28;20132;-65
2021/04/07 10:57:45;;;;;;;1999.90;999.90;;;;;;;5.48;64.53;97532.25;5005150;28;20057;-66
2021/04/07 11:00:23;;;;;;;1999.90;999.90;;;;;;;6.35;60.41;97520.94;4999684;28;20555;-64
2021/04/07 11:02:52;;;;;;;1999.90;999.90;;;;;;;6.66;56.60;97520.06;5004868;28;20045;-64
2021/04/07 11:05:26;;;;;;;1999.90;999.90;;;;;;;6.37;56.70;97524.16;5001650;28;20066;-64
2021/04/07 11:08:03;;;;;;;1999.90;999.90;;;;;;;5.85;57.17;97524.75;5006709;28;20462;-64